Airport View

Enter AWOS ICAO identifier for current METAR.

ex. KFNL

KDZJ 212335Z AUTO 19003KT 10SM CLR A3026 RMK AO2

21 Sep 2019 23:46

Frequency: 119.325

Phone: 706-745-9271

Other Area AWOS: KRHP - K49A - KAJR - KJZP

TAF KTYS 211720Z 2118/2218 20005KT P6SM FEW060 FM220100 00000KT P6SM FEW250 FM221600 21005KT P6SM SKC